Time;durP1;ratioP1;P1;durP2;ratioP2;P2;SDS_P1;SDS_P2;PMS_P1;PMS_P2;Temp;Humidity;BMP_temperature;BMP_pressure;BME280_temperature;BME280_humidity;BME280_pressure;Samples;Min_cycle;Max_cycle;Signal;HPM_P1;HPM_P2
2021/07/30 00:00:45;;;;;;;22.30;15.88;;;;;;;;;;1492783;39;20024;-63
2021/07/30 00:01:47;;;;;;;24.50;15.63;;;;;;;;;;1492983;39;20024;-63
2021/07/30 00:02:48;;;;;;;25.00;15.23;;;;;;;;;;1492809;39;20023;-64
2021/07/30 00:03:51;;;;;;;25.40;16.30;;;;;;;;;;1492953;39;20029;-63
2021/07/30 00:04:52;;;;;;;28.20;17.88;;;;;;;;;;1492684;39;20030;-63
2021/07/30 00:05:54;;;;;;;31.55;16.90;;;;;;;;;;1492767;39;20035;-63
2021/07/30 00:06:54;;;;;;;24.58;16.35;;;;;;;;;;1492784;39;20052;-63
2021/07/30 00:07:57;;;;;;;29.13;16.40;;;;;;;;;;1492815;39;20028;-63
2021/07/30 00:08:57;;;;;;;27.20;16.40;;;;;;;;;;1492686;39;20028;-64
2021/07/30 00:09:59;;;;;;;28.48;16.20;;;;;;;;;;1492858;39;20020;-63
2021/07/30 00:11:00;;;;;;;31.67;17.10;;;;;;;;;;1492753;39;20043;-63
2021/07/30 00:12:02;;;;;;;26.83;16.98;;;;;;;;;;1492734;39;20024;-63
2021/07/30 00:13:02;;;;;;;24.17;16.60;;;;;;;;;;1492741;39;20051;-63
2021/07/30 00:14:04;;;;;;;24.52;17.17;;;;;;;;;;1492245;39;20032;-63
2021/07/30 00:15:07;;;;;;;27.60;16.50;;;;;;;;;;1492199;39;20035;-63
2021/07/30 00:16:09;;;;;;;24.02;16.20;;;;;;;;;;1492776;39;20031;-63
2021/07/30 00:17:10;;;;;;;28.52;17.73;;;;;;;;;;1492658;39;20028;-63
2021/07/30 00:18:13;;;;;;;28.17;17.80;;;;;;;;;;1492831;39;20024;-63
2021/07/30 00:19:15;;;;;;;29.35;16.75;;;;;;;;;;1492803;39;20028;-63
2021/07/30 00:20:16;;;;;;;24.88;17.15;;;;;;;;;;1492849;39;20295;-64
2021/07/30 00:21:17;;;;;;;24.95;17.17;;;;;;;;;;1492623;39;20024;-63
2021/07/30 00:22:19;;;;;;;27.00;17.25;;;;;;;;;;1492988;39;20024;-64
2021/07/30 00:23:20;;;;;;;27.27;16.60;;;;;;;;;;1492741;39;20024;-63
2021/07/30 00:24:22;;;;;;;24.35;15.75;;;;;;;;;;1493310;39;20272;-63
2021/07/30 00:25:23;;;;;;;23.20;15.95;;;;;;;;;;1493465;39;20092;-64
2021/07/30 00:26:25;;;;;;;25.80;16.63;;;;;;;;;;1493441;39;20064;-63
2021/07/30 00:27:26;;;;;;;25.98;16.25;;;;;;;;;;1493490;39;20031;-63
2021/07/30 00:28:27;;;;;;;27.75;16.63;;;;;;;;;;1493448;39;20051;-63
2021/07/30 00:29:28;;;;;;;24.60;16.77;;;;;;;;;;1493377;39;20024;-63
2021/07/30 00:30:36;;;;;;;25.58;16.23;;;;;;;;;;1493409;39;20020;-63
2021/07/30 00:31:36;;;;;;;27.67;16.23;;;;;;;;;;1493317;39;20030;-63
2021/07/30 00:32:39;;;;;;;28.13;16.98;;;;;;;;;;1493312;39;20020;-63
2021/07/30 00:33:39;;;;;;;26.13;16.83;;;;;;;;;;1493359;39;20024;-63
2021/07/30 00:34:43;;;;;;;29.00;15.77;;;;;;;;;;1493418;39;20020;-63
2021/07/30 00:35:43;;;;;;;24.10;15.57;;;;;;;;;;1493258;39;20321;-63
2021/07/30 00:36:45;;;;;;;27.27;16.88;;;;;;;;;;1493376;39;20048;-63
2021/07/30 00:37:46;;;;;;;25.40;15.73;;;;;;;;;;1493258;39;20024;-63
2021/07/30 00:38:48;;;;;;;26.95;16.15;;;;;;;;;;1493567;39;20371;-63
2021/07/30 00:39:49;;;;;;;25.25;16.00;;;;;;;;;;1493271;39;20020;-63
2021/07/30 00:40:51;;;;;;;27.52;16.25;;;;;;;;;;1493267;39;20024;-63
2021/07/30 00:41:52;;;;;;;24.73;15.85;;;;;;;;;;1493284;39;20028;-63
2021/07/30 00:42:54;;;;;;;25.45;16.88;;;;;;;;;;1493535;39;20383;-63
2021/07/30 00:43:55;;;;;;;24.38;15.60;;;;;;;;;;1493404;39;20027;-63
2021/07/30 00:44:56;;;;;;;33.63;15.77;;;;;;;;;;1493359;39;20030;-63
2021/07/30 00:45:59;;;;;;;25.75;15.82;;;;;;;;;;1493263;39;20028;-63
2021/07/30 00:47:01;;;;;;;24.75;15.30;;;;;;;;;;1493378;39;20032;-63
2021/07/30 00:48:02;;;;;;;24.33;16.20;;;;;;;;;;1493326;39;20028;-63
2021/07/30 00:49:03;;;;;;;23.35;15.43;;;;;;;;;;1493382;39;20028;-63
2021/07/30 00:50:06;;;;;;;25.50;15.90;;;;;;;;;;1493305;39;20024;-63
2021/07/30 00:51:08;;;;;;;26.45;16.27;;;;;;;;;;1493301;39;20023;-64
2021/07/30 00:52:09;;;;;;;24.30;16.02;;;;;;;;;;1493302;39;20031;-63
2021/07/30 00:53:12;;;;;;;29.48;16.50;;;;;;;;;;1493409;39;20320;-64
2021/07/30 00:54:13;;;;;;;31.45;16.55;;;;;;;;;;1488565;40;20388;-63
2021/07/30 00:55:15;;;;;;;28.45;16.48;;;;;;;;;;1488714;40;20028;-63
2021/07/30 00:56:23;;;;;;;28.98;16.75;;;;;;;;;;1493293;39;20024;-63
2021/07/30 00:57:25;;;;;;;27.58;16.58;;;;;;;;;;1493183;39;20020;-63
2021/07/30 00:58:28;;;;;;;24.02;15.48;;;;;;;;;;1493256;39;20391;-63
2021/07/30 00:59:29;;;;;;;29.38;16.65;;;;;;;;;;1493314;39;20100;-64
2021/07/30 01:00:30;;;;;;;25.20;15.90;;;;;;;;;;1493222;39;20028;-64
2021/07/30 01:01:32;;;;;;;27.30;16.45;;;;;;;;;;1493383;39;20031;-63
2021/07/30 01:02:33;;;;;;;24.30;15.88;;;;;;;;;;1493190;39;20023;-64
2021/07/30 01:03:35;;;;;;;26.17;15.75;;;;;;;;;;1493335;39;20028;-63
2021/07/30 01:04:36;;;;;;;27.27;15.43;;;;;;;;;;1493203;39;20031;-63
2021/07/30 01:05:39;;;;;;;26.75;15.75;;;;;;;;;;1493411;39;20031;-64
2021/07/30 01:06:40;;;;;;;27.42;15.80;;;;;;;;;;1493092;39;20046;-64
2021/07/30 01:07:42;;;;;;;22.95;15.55;;;;;;;;;;1493449;39;20052;-63
2021/07/30 01:08:43;;;;;;;24.77;15.95;;;;;;;;;;1493262;39;20020;-63
2021/07/30 01:09:45;;;;;;;26.20;15.63;;;;;;;;;;1493330;39;20028;-63
2021/07/30 01:10:46;;;;;;;26.67;15.30;;;;;;;;;;1493157;39;20028;-63
2021/07/30 01:11:48;;;;;;;25.98;15.27;;;;;;;;;;1493349;39;20330;-63
2021/07/30 01:12:49;;;;;;;22.95;15.23;;;;;;;;;;1493200;39;20399;-63
2021/07/30 01:13:51;;;;;;;25.90;15.57;;;;;;;;;;1493243;39;20028;-63
2021/07/30 01:14:53;;;;;;;25.23;16.13;;;;;;;;;;1493162;39;20028;-63
2021/07/30 01:15:55;;;;;;;25.08;16.00;;;;;;;;;;1493507;39;20020;-63
2021/07/30 01:16:56;;;;;;;26.55;15.63;;;;;;;;;;1493217;39;20035;-63
2021/07/30 01:17:58;;;;;;;27.95;16.42;;;;;;;;;;1493376;39;20041;-63
2021/07/30 01:18:58;;;;;;;26.85;15.88;;;;;;;;;;1493152;39;20028;-63
2021/07/30 01:20:00;;;;;;;28.10;15.98;;;;;;;;;;1493210;39;20024;-63
2021/07/30 01:21:23;;;;;;;25.05;15.95;;;;;;;;;;1493239;39;20391;-63
2021/07/30 01:22:28;;;;;;;26.40;15.77;;;;;;;;;;1493350;39;20035;-63
2021/07/30 01:23:30;;;;;;;25.40;15.20;;;;;;;;;;1493238;39;20028;-64
2021/07/30 01:24:32;;;;;;;24.60;15.60;;;;;;;;;;1493165;39;20027;-63
2021/07/30 01:25:32;;;;;;;24.85;15.23;;;;;;;;;;1493211;39;20027;-63
2021/07/30 01:26:34;;;;;;;30.05;15.73;;;;;;;;;;1493258;39;20287;-63
2021/07/30 01:27:35;;;;;;;28.73;15.82;;;;;;;;;;1493097;39;20024;-64
2021/07/30 01:28:37;;;;;;;29.08;15.82;;;;;;;;;;1493293;39;20379;-63
2021/07/30 01:29:38;;;;;;;25.48;16.10;;;;;;;;;;1493228;39;20020;-63
2021/07/30 01:30:40;;;;;;;25.42;14.40;;;;;;;;;;1493311;39;20035;-63
2021/07/30 01:31:40;;;;;;;26.38;16.08;;;;;;;;;;1493131;39;20023;-63
2021/07/30 01:32:42;;;;;;;26.05;15.40;;;;;;;;;;1493289;39;20398;-63
2021/07/30 01:33:44;;;;;;;24.98;15.75;;;;;;;;;;1493109;39;20023;-63
2021/07/30 01:34:46;;;;;;;26.92;15.60;;;;;;;;;;1493019;39;20024;-63
2021/07/30 01:35:47;;;;;;;28.75;15.82;;;;;;;;;;1492928;39;20020;-63
2021/07/30 01:36:49;;;;;;;24.52;15.27;;;;;;;;;;1493112;39;20401;-64
2021/07/30 01:37:50;;;;;;;27.90;15.73;;;;;;;;;;1493076;39;20465;-63
2021/07/30 01:38:53;;;;;;;26.13;16.35;;;;;;;;;;1493212;39;20028;-63
2021/07/30 01:39:54;;;;;;;26.67;15.80;;;;;;;;;;1493167;39;20031;-63
2021/07/30 01:41:08;;;;;;;22.83;15.15;;;;;;;;;;1493139;39;20035;-64
2021/07/30 01:42:09;;;;;;;24.38;15.13;;;;;;;;;;1493084;39;20042;-63
2021/07/30 01:43:11;;;;;;;29.00;15.50;;;;;;;;;;1493361;39;20024;-63
2021/07/30 01:44:14;;;;;;;27.70;15.80;;;;;;;;;;1493212;39;20401;-63
2021/07/30 01:45:16;;;;;;;25.50;15.02;;;;;;;;;;1493283;39;20028;-63
2021/07/30 01:46:16;;;;;;;23.48;15.30;;;;;;;;;;1493138;39;20020;-63
2021/07/30 01:47:19;;;;;;;25.45;14.40;;;;;;;;;;1493169;39;20357;-63
2021/07/30 01:48:20;;;;;;;30.35;15.32;;;;;;;;;;1493260;39;20040;-63
2021/07/30 01:49:22;;;;;;;23.98;15.75;;;;;;;;;;1493301;39;20036;-63
2021/07/30 01:50:23;;;;;;;26.63;15.52;;;;;;;;;;1493172;39;20024;-63
2021/07/30 01:51:25;;;;;;;21.52;14.23;;;;;;;;;;1493363;39;20056;-63
2021/07/30 01:52:25;;;;;;;28.27;16.10;;;;;;;;;;1493177;39;20024;-63
2021/07/30 01:53:27;;;;;;;32.42;15.68;;;;;;;;;;1493198;39;20031;-64
2021/07/30 01:54:30;;;;;;;26.90;15.52;;;;;;;;;;1493170;39;20039;-63
2021/07/30 01:55:31;;;;;;;27.30;14.40;;;;;;;;;;1493194;39;20023;-63
2021/07/30 01:56:32;;;;;;;23.25;14.35;;;;;;;;;;1493201;39;20034;-63
2021/07/30 01:57:34;;;;;;;22.25;14.73;;;;;;;;;;1493149;39;20395;-63
2021/07/30 01:58:35;;;;;;;24.42;14.88;;;;;;;;;;1493222;39;20404;-63
2021/07/30 01:59:37;;;;;;;23.70;14.77;;;;;;;;;;1493296;39;20024;-64
2021/07/30 02:00:38;;;;;;;20.58;14.15;;;;;;;;;;1493152;39;20020;-64
2021/07/30 02:01:40;;;;;;;23.13;14.05;;;;;;;;;;1493183;39;20039;-63
2021/07/30 02:02:41;;;;;;;26.48;14.90;;;;;;;;;;1493126;39;20019;-63
2021/07/30 02:03:42;;;;;;;24.20;14.80;;;;;;;;;;1493214;39;20027;-63
2021/07/30 02:04:43;;;;;;;23.63;14.52;;;;;;;;;;1493154;39;20024;-63
2021/07/30 02:05:45;;;;;;;24.30;14.73;;;;;;;;;;1493203;39;20395;-64
2021/07/30 02:06:46;;;;;;;21.88;15.15;;;;;;;;;;1492988;39;20028;-64
2021/07/30 02:07:47;;;;;;;26.08;15.23;;;;;;;;;;1493583;39;20024;-64
2021/07/30 02:08:48;;;;;;;24.15;15.10;;;;;;;;;;1493148;39;20027;-64
2021/07/30 02:09:51;;;;;;;27.30;15.30;;;;;;;;;;1493233;39;20382;-63
2021/07/30 02:10:53;;;;;;;28.63;15.50;;;;;;;;;;1488293;40;20277;-63
2021/07/30 02:11:55;;;;;;;23.08;15.68;;;;;;;;;;1488738;39;20060;-63
2021/07/30 02:14:15;;;;;;;23.75;14.50;;;;;;;;;;1493135;39;20020;-63
2021/07/30 02:15:16;;;;;;;26.42;14.48;;;;;;;;;;1493172;39;20020;-64
2021/07/30 02:16:18;;;;;;;24.13;15.27;;;;;;;;;;1493203;39;20020;-64
2021/07/30 02:17:20;;;;;;;24.48;14.70;;;;;;;;;;1492952;39;20032;-63
2021/07/30 02:18:20;;;;;;;21.73;13.85;;;;;;;;;;1493151;39;20020;-63
2021/07/30 02:19:24;;;;;;;24.58;14.88;;;;;;;;;;1493275;39;20386;-63
2021/07/30 02:20:24;;;;;;;23.42;13.93;;;;;;;;;;1493070;39;20028;-63
2021/07/30 02:21:26;;;;;;;26.48;14.38;;;;;;;;;;1493097;39;20020;-63
2021/07/30 02:22:27;;;;;;;23.35;14.52;;;;;;;;;;1493074;39;20387;-63
2021/07/30 02:23:29;;;;;;;22.27;14.23;;;;;;;;;;1493144;39;20032;-63
2021/07/30 02:24:29;;;;;;;24.23;14.80;;;;;;;;;;1492965;39;20023;-63
2021/07/30 02:25:33;;;;;;;24.15;14.63;;;;;;;;;;1493123;39;20036;-63
2021/07/30 02:26:33;;;;;;;22.10;14.73;;;;;;;;;;1492921;39;20039;-63
2021/07/30 02:27:35;;;;;;;29.17;15.32;;;;;;;;;;1493078;39;20060;-63
2021/07/30 02:28:36;;;;;;;23.67;15.13;;;;;;;;;;1493023;39;20031;-63
2021/07/30 02:29:38;;;;;;;25.27;15.30;;;;;;;;;;1493327;39;20061;-63
2021/07/30 02:30:38;;;;;;;24.55;15.90;;;;;;;;;;1492957;39;20027;-63
2021/07/30 02:31:41;;;;;;;24.27;14.98;;;;;;;;;;1493142;39;20286;-63
2021/07/30 02:32:41;;;;;;;27.50;14.48;;;;;;;;;;1493174;39;20028;-64
2021/07/30 02:33:43;;;;;;;24.30;14.25;;;;;;;;;;1493345;39;20056;-64
2021/07/30 02:34:44;;;;;;;23.67;15.10;;;;;;;;;;1493222;39;20020;-63
2021/07/30 02:35:46;;;;;;;24.55;14.27;;;;;;;;;;1492971;39;20290;-64
2021/07/30 02:36:47;;;;;;;24.20;15.00;;;;;;;;;;1492945;39;20413;-63
2021/07/30 02:37:49;;;;;;;23.73;14.65;;;;;;;;;;1493160;39;20035;-64
2021/07/30 02:38:50;;;;;;;20.70;14.55;;;;;;;;;;1492982;39;20020;-64
2021/07/30 02:39:52;;;;;;;21.42;13.73;;;;;;;;;;1493187;39;20031;-63
2021/07/30 02:40:54;;;;;;;23.13;14.05;;;;;;;;;;1492964;39;20020;-63
2021/07/30 02:41:56;;;;;;;25.58;15.20;;;;;;;;;;1493077;39;20394;-63
2021/07/30 02:42:56;;;;;;;24.42;15.15;;;;;;;;;;1493077;39;20024;-63
2021/07/30 02:43:58;;;;;;;23.08;14.52;;;;;;;;;;1493135;39;20023;-63
2021/07/30 02:44:59;;;;;;;23.25;14.95;;;;;;;;;;1493052;39;20016;-63
2021/07/30 02:46:01;;;;;;;21.33;14.05;;;;;;;;;;1493041;39;20398;-63
2021/07/30 02:47:02;;;;;;;22.10;14.55;;;;;;;;;;1492900;39;20028;-63
2021/07/30 02:48:05;;;;;;;24.75;14.90;;;;;;;;;;1493004;39;20391;-63
2021/07/30 02:49:05;;;;;;;22.25;14.20;;;;;;;;;;1492969;39;20406;-64
2021/07/30 02:50:08;;;;;;;21.23;14.38;;;;;;;;;;1493280;39;20027;-63
2021/07/30 02:51:09;;;;;;;22.27;15.10;;;;;;;;;;1493040;39;20027;-63
2021/07/30 02:52:11;;;;;;;24.05;15.05;;;;;;;;;;1493060;39;20047;-63
2021/07/30 02:53:12;;;;;;;25.83;14.63;;;;;;;;;;1492881;39;20387;-63
2021/07/30 02:54:13;;;;;;;29.25;14.77;;;;;;;;;;1493071;39;20024;-64
2021/07/30 02:55:14;;;;;;;24.80;14.48;;;;;;;;;;1492939;39;20083;-63
2021/07/30 02:56:17;;;;;;;26.88;15.00;;;;;;;;;;1493103;39;20045;-63
2021/07/30 02:57:18;;;;;;;23.27;14.52;;;;;;;;;;1492976;39;20027;-63
2021/07/30 02:58:20;;;;;;;30.10;14.50;;;;;;;;;;1493201;39;20035;-63
2021/07/30 02:59:20;;;;;;;29.58;15.05;;;;;;;;;;1492987;39;20391;-63
2021/07/30 03:00:22;;;;;;;23.65;13.95;;;;;;;;;;1492978;39;20056;-63
2021/07/30 03:01:23;;;;;;;24.42;15.45;;;;;;;;;;1492947;39;20016;-63
2021/07/30 03:02:25;;;;;;;28.90;14.38;;;;;;;;;;1493061;39;20024;-64
2021/07/30 03:03:26;;;;;;;26.27;14.85;;;;;;;;;;1492936;39;20024;-63
2021/07/30 03:04:28;;;;;;;23.75;14.38;;;;;;;;;;1493042;39;20024;-63
2021/07/30 03:05:30;;;;;;;25.05;14.93;;;;;;;;;;1492843;39;20081;-64
2021/07/30 03:06:30;;;;;;;21.75;13.93;;;;;;;;;;1492939;39;20380;-63
2021/07/30 03:07:32;;;;;;;27.13;15.10;;;;;;;;;;1493192;39;20043;-63
2021/07/30 03:08:33;;;;;;;23.20;15.00;;;;;;;;;;1492906;39;20031;-64
2021/07/30 03:09:35;;;;;;;24.13;15.00;;;;;;;;;;1493208;39;20031;-63
2021/07/30 03:10:36;;;;;;;27.20;15.15;;;;;;;;;;1492877;39;20047;-63
2021/07/30 03:11:42;;;;;;;27.20;15.77;;;;;;;;;;1493152;39;20032;-63
2021/07/30 03:12:42;;;;;;;22.95;15.60;;;;;;;;;;1492944;39;20031;-63
2021/07/30 03:13:44;;;;;;;28.58;15.13;;;;;;;;;;1493053;39;20027;-63
2021/07/30 03:14:45;;;;;;;22.35;14.20;;;;;;;;;;1492870;39;20027;-64
2021/07/30 03:15:47;;;;;;;29.88;14.68;;;;;;;;;;1493015;39;20024;-63
2021/07/30 03:16:47;;;;;;;23.50;14.90;;;;;;;;;;1492924;39;20039;-63
2021/07/30 03:17:49;;;;;;;25.65;14.63;;;;;;;;;;1493044;39;20061;-63
2021/07/30 03:18:50;;;;;;;23.45;14.85;;;;;;;;;;1492820;39;20028;-64
2021/07/30 03:19:52;;;;;;;31.38;14.85;;;;;;;;;;1492945;39;20424;-63
2021/07/30 03:20:53;;;;;;;27.30;14.50;;;;;;;;;;1492903;39;20031;-63
2021/07/30 03:21:56;;;;;;;23.85;14.43;;;;;;;;;;1493022;39;20394;-63
2021/07/30 03:22:56;;;;;;;25.70;14.40;;;;;;;;;;1492433;39;20123;-64
2021/07/30 03:23:58;;;;;;;28.25;14.50;;;;;;;;;;1492586;39;20028;-63
2021/07/30 03:25:00;;;;;;;30.35;14.82;;;;;;;;;;1492889;39;20020;-63
2021/07/30 03:26:01;;;;;;;26.55;14.77;;;;;;;;;;1492935;39;20024;-64
2021/07/30 03:27:04;;;;;;;29.33;15.48;;;;;;;;;;1492828;39;20038;-63
2021/07/30 03:28:06;;;;;;;30.33;15.73;;;;;;;;;;1493005;39;20039;-63
2021/07/30 03:29:07;;;;;;;26.75;15.45;;;;;;;;;;1488076;40;20105;-63
2021/07/30 03:30:10;;;;;;;30.65;15.20;;;;;;;;;;1488309;40;20025;-63
2021/07/30 03:31:11;;;;;;;27.13;15.00;;;;;;;;;;1492832;39;20427;-63
2021/07/30 03:32:12;;;;;;;28.35;15.50;;;;;;;;;;1493138;39;20100;-63
2021/07/30 03:33:13;;;;;;;28.08;15.88;;;;;;;;;;1492904;39;20283;-63
2021/07/30 03:34:15;;;;;;;28.77;15.10;;;;;;;;;;1492916;39;20032;-64
2021/07/30 03:35:16;;;;;;;30.02;14.90;;;;;;;;;;1492796;39;20024;-63
2021/07/30 03:36:18;;;;;;;25.15;14.40;;;;;;;;;;1492905;39;20141;-64
2021/07/30 03:37:18;;;;;;;24.15;14.35;;;;;;;;;;1492834;39;20391;-63
2021/07/30 03:38:20;;;;;;;26.35;15.00;;;;;;;;;;1492968;39;20032;-63
2021/07/30 03:39:21;;;;;;;26.70;15.05;;;;;;;;;;1492991;39;20027;-63
2021/07/30 03:40:23;;;;;;;26.88;15.38;;;;;;;;;;1492810;39;20036;-64
2021/07/30 03:41:24;;;;;;;30.15;15.65;;;;;;;;;;1492754;39;20024;-63
2021/07/30 03:42:27;;;;;;;25.40;14.70;;;;;;;;;;1493102;39;20024;-64
2021/07/30 03:43:28;;;;;;;26.75;15.60;;;;;;;;;;1492893;39;20028;-63
2021/07/30 03:44:29;;;;;;;29.33;16.20;;;;;;;;;;1492974;39;20020;-63
2021/07/30 03:45:30;;;;;;;28.30;15.02;;;;;;;;;;1492846;39;20074;-63
2021/07/30 03:46:32;;;;;;;28.20;17.30;;;;;;;;;;1493001;39;20035;-64
2021/07/30 03:47:33;;;;;;;27.42;15.38;;;;;;;;;;1492859;39;20035;-63
2021/07/30 03:48:35;;;;;;;25.98;15.05;;;;;;;;;;1492921;39;20043;-63
2021/07/30 03:49:35;;;;;;;24.02;15.40;;;;;;;;;;1492781;39;20058;-64
2021/07/30 03:50:37;;;;;;;26.23;15.25;;;;;;;;;;1492954;39;20391;-63
2021/07/30 03:51:38;;;;;;;28.92;15.50;;;;;;;;;;1492803;39;20024;-63
2021/07/30 03:52:40;;;;;;;28.33;16.33;;;;;;;;;;1492892;39;20024;-63
2021/07/30 03:53:40;;;;;;;30.13;15.48;;;;;;;;;;1492757;39;20298;-63
2021/07/30 03:54:42;;;;;;;31.90;15.13;;;;;;;;;;1492930;39;20064;-63
2021/07/30 03:55:43;;;;;;;24.13;14.30;;;;;;;;;;1492720;39;20024;-63
2021/07/30 03:56:45;;;;;;;25.42;15.00;;;;;;;;;;1492952;39;20035;-63
2021/07/30 03:57:47;;;;;;;26.08;15.48;;;;;;;;;;1492734;39;20138;-63
2021/07/30 03:58:49;;;;;;;26.17;15.50;;;;;;;;;;1493321;39;20418;-64
2021/07/30 03:59:53;;;;;;;26.75;15.10;;;;;;;;;;1493479;39;20031;-64
2021/07/30 04:00:55;;;;;;;25.10;14.68;;;;;;;;;;1493460;39;20024;-63
2021/07/30 04:01:56;;;;;;;26.70;15.63;;;;;;;;;;1493496;39;20047;-63
2021/07/30 04:02:58;;;;;;;32.83;15.82;;;;;;;;;;1493261;39;20016;-63
2021/07/30 04:03:58;;;;;;;29.33;15.90;;;;;;;;;;1493376;39;20039;-63
2021/07/30 04:05:00;;;;;;;26.27;14.38;;;;;;;;;;1493425;39;20060;-63
2021/07/30 04:06:01;;;;;;;30.58;15.23;;;;;;;;;;1493519;39;20027;-63
2021/07/30 04:07:03;;;;;;;32.53;15.32;;;;;;;;;;1493519;39;20435;-63
2021/07/30 04:08:04;;;;;;;27.23;14.95;;;;;;;;;;1493285;39;20047;-63
2021/07/30 04:09:10;;;;;;;22.23;15.10;;;;;;;;;;1493440;39;20036;-63
2021/07/30 04:10:10;;;;;;;24.73;14.52;;;;;;;;;;1493495;39;20267;-63
2021/07/30 04:11:12;;;;;;;25.70;14.80;;;;;;;;;;1493476;39;20035;-63
2021/07/30 04:12:13;;;;;;;25.15;14.80;;;;;;;;;;1493374;39;20028;-63
2021/07/30 04:13:16;;;;;;;25.20;14.02;;;;;;;;;;1493519;39;20031;-63
2021/07/30 04:14:17;;;;;;;35.90;16.77;;;;;;;;;;1493395;39;20029;-63
2021/07/30 04:15:19;;;;;;;32.35;16.05;;;;;;;;;;1493487;39;20032;-63
2021/07/30 04:16:20;;;;;;;28.95;14.65;;;;;;;;;;1493381;39;20031;-63
2021/07/30 04:17:21;;;;;;;31.98;14.85;;;;;;;;;;1493506;39;20031;-64
2021/07/30 04:18:22;;;;;;;29.08;16.25;;;;;;;;;;1493344;39;20094;-63
2021/07/30 04:19:24;;;;;;;31.52;16.40;;;;;;;;;;1493432;39;20312;-63
2021/07/30 04:20:25;;;;;;;29.33;15.88;;;;;;;;;;1493341;39;20020;-63
2021/07/30 04:21:27;;;;;;;29.20;15.48;;;;;;;;;;1493666;39;20031;-63
2021/07/30 04:22:28;;;;;;;29.83;17.02;;;;;;;;;;1493289;39;20024;-63
2021/07/30 04:23:30;;;;;;;27.98;15.88;;;;;;;;;;1493496;39;20024;-63
2021/07/30 04:24:31;;;;;;;27.67;15.77;;;;;;;;;;1493263;39;20027;-64
2021/07/30 04:25:33;;;;;;;33.60;17.00;;;;;;;;;;1493317;39;20065;-64
2021/07/30 04:26:33;;;;;;;30.67;17.27;;;;;;;;;;1493320;39;20264;-63
2021/07/30 04:27:35;;;;;;;27.83;16.30;;;;;;;;;;1493509;39;20035;-63
2021/07/30 04:28:37;;;;;;;25.55;15.32;;;;;;;;;;1493513;39;20027;-63
2021/07/30 04:29:40;;;;;;;29.63;15.32;;;;;;;;;;1493269;39;20406;-63
2021/07/30 04:30:41;;;;;;;27.40;15.18;;;;;;;;;;1493261;39;20019;-63
2021/07/30 04:31:43;;;;;;;23.63;15.07;;;;;;;;;;1493592;39;20031;-63
2021/07/30 04:32:43;;;;;;;25.52;15.23;;;;;;;;;;1493416;39;20016;-63
2021/07/30 04:33:45;;;;;;;28.95;15.60;;;;;;;;;;1493323;39;20395;-63
2021/07/30 04:34:46;;;;;;;29.52;15.60;;;;;;;;;;1493468;39;20020;-63
2021/07/30 04:35:48;;;;;;;28.55;15.57;;;;;;;;;;1493343;39;20035;-63
2021/07/30 04:36:48;;;;;;;29.95;15.38;;;;;;;;;;1493294;39;20054;-63
2021/07/30 04:37:50;;;;;;;28.85;15.55;;;;;;;;;;1493407;39;20058;-63
2021/07/30 04:38:51;;;;;;;26.95;14.68;;;;;;;;;;1493286;39;20024;-63
2021/07/30 04:39:53;;;;;;;32.58;14.48;;;;;;;;;;1493434;39;20023;-63
2021/07/30 04:40:53;;;;;;;26.60;14.80;;;;;;;;;;1493360;39;20035;-63
2021/07/30 04:41:55;;;;;;;29.13;15.48;;;;;;;;;;1493398;39;20016;-63
2021/07/30 04:42:56;;;;;;;25.67;15.00;;;;;;;;;;1493262;39;20020;-63
2021/07/30 04:43:59;;;;;;;23.30;14.68;;;;;;;;;;1493527;39;20028;-63
2021/07/30 04:45:00;;;;;;;25.58;14.90;;;;;;;;;;1493348;39;20025;-63
2021/07/30 04:46:03;;;;;;;22.63;14.10;;;;;;;;;;1493403;39;20272;-63
2021/07/30 04:47:05;;;;;;;28.98;14.27;;;;;;;;;;1493597;39;20036;-63
2021/07/30 04:48:07;;;;;;;21.08;13.57;;;;;;;;;;1493564;39;20031;-63
2021/07/30 04:49:07;;;;;;;27.13;14.98;;;;;;;;;;1493318;39;20024;-63
2021/07/30 04:50:10;;;;;;;25.63;15.00;;;;;;;;;;1493396;39;20310;-63
2021/07/30 04:51:11;;;;;;;29.70;13.73;;;;;;;;;;1493344;39;20021;-63
2021/07/30 04:52:13;;;;;;;25.98;15.48;;;;;;;;;;1493537;39;20093;-64
2021/07/30 04:53:14;;;;;;;21.95;14.20;;;;;;;;;;1493216;39;20024;-63
2021/07/30 04:54:16;;;;;;;27.23;15.13;;;;;;;;;;1493275;39;20276;-64
2021/07/30 04:55:17;;;;;;;25.65;14.55;;;;;;;;;;1493312;39;20024;-63
2021/07/30 04:56:19;;;;;;;28.35;15.40;;;;;;;;;;1493461;39;20060;-63
2021/07/30 04:57:20;;;;;;;23.75;14.55;;;;;;;;;;1493234;39;20150;-64
2021/07/30 04:58:21;;;;;;;23.70;14.70;;;;;;;;;;1493403;39;20452;-63
2021/07/30 04:59:24;;;;;;;27.33;14.55;;;;;;;;;;1493238;39;20040;-64
2021/07/30 05:00:25;;;;;;;25.15;13.88;;;;;;;;;;1493414;39;20024;-63
2021/07/30 05:01:26;;;;;;;25.52;13.70;;;;;;;;;;1493289;39;20029;-63
2021/07/30 05:02:28;;;;;;;27.60;14.93;;;;;;;;;;1493271;39;20035;-64
2021/07/30 05:03:29;;;;;;;27.50;14.68;;;;;;;;;;1493206;39;20051;-63
2021/07/30 05:04:31;;;;;;;23.88;14.35;;;;;;;;;;1493358;39;20063;-63
2021/07/30 05:05:32;;;;;;;23.73;14.60;;;;;;;;;;1493395;39;20290;-63
2021/07/30 05:06:33;;;;;;;26.65;14.82;;;;;;;;;;1493268;39;20020;-63
2021/07/30 05:07:34;;;;;;;25.67;14.05;;;;;;;;;;1493201;39;20020;-63
2021/07/30 05:08:36;;;;;;;24.80;14.70;;;;;;;;;;1493341;39;20024;-63
2021/07/30 05:09:37;;;;;;;26.50;13.68;;;;;;;;;;1493196;39;20298;-63
2021/07/30 05:10:38;;;;;;;28.48;15.38;;;;;;;;;;1493390;39;20023;-63
2021/07/30 05:11:39;;;;;;;28.80;15.18;;;;;;;;;;1488430;40;20366;-64
2021/07/30 05:12:41;;;;;;;25.23;14.27;;;;;;;;;;1488496;40;20080;-63
2021/07/30 05:13:43;;;;;;;22.65;14.13;;;;;;;;;;1493423;39;20035;-63
2021/07/30 05:14:46;;;;;;;26.40;15.25;;;;;;;;;;1493289;39;20020;-63
2021/07/30 05:15:47;;;;;;;25.83;14.23;;;;;;;;;;1493296;39;20024;-64
2021/07/30 05:16:49;;;;;;;25.30;14.52;;;;;;;;;;1493367;39;20280;-63
2021/07/30 05:17:49;;;;;;;26.27;14.48;;;;;;;;;;1493265;39;20031;-63
2021/07/30 05:18:51;;;;;;;29.00;14.02;;;;;;;;;;1493433;39;20028;-63
2021/07/30 05:19:52;;;;;;;23.73;14.77;;;;;;;;;;1493133;39;20024;-64
2021/07/30 05:20:54;;;;;;;24.58;13.55;;;;;;;;;;1493394;39;20031;-63
2021/07/30 05:21:55;;;;;;;25.70;14.40;;;;;;;;;;1493189;39;20024;-63
2021/07/30 05:22:56;;;;;;;26.13;14.30;;;;;;;;;;1493283;39;20043;-63
2021/07/30 05:23:57;;;;;;;26.52;14.77;;;;;;;;;;1493208;39;20031;-63
2021/07/30 05:24:59;;;;;;;26.02;13.70;;;;;;;;;;1493318;39;20290;-63
2021/07/30 05:26:01;;;;;;;25.63;14.07;;;;;;;;;;1493116;39;20028;-63
2021/07/30 05:27:04;;;;;;;24.30;14.85;;;;;;;;;;1493265;39;20040;-64
2021/07/30 05:28:05;;;;;;;25.13;15.32;;;;;;;;;;1493155;39;20030;-64
2021/07/30 05:29:08;;;;;;;26.63;15.20;;;;;;;;;;1493286;39;20031;-63
2021/07/30 05:30:12;;;;;;;24.13;14.65;;;;;;;;;;1493137;39;20059;-64
2021/07/30 05:31:15;;;;;;;27.98;14.68;;;;;;;;;;1493320;39;20070;-63
2021/07/30 05:32:16;;;;;;;24.27;14.70;;;;;;;;;;1493146;39;20050;-63
2021/07/30 05:33:18;;;;;;;24.92;14.10;;;;;;;;;;1493290;39;20384;-63
2021/07/30 05:34:19;;;;;;;25.05;14.63;;;;;;;;;;1493201;39;20286;-63
2021/07/30 05:35:21;;;;;;;31.35;14.48;;;;;;;;;;1493404;39;20024;-64
2021/07/30 05:36:22;;;;;;;27.33;14.65;;;;;;;;;;1493074;39;20023;-63
2021/07/30 05:37:23;;;;;;;25.35;14.30;;;;;;;;;;1493254;39;20096;-64
2021/07/30 05:38:24;;;;;;;24.67;14.85;;;;;;;;;;1493100;39;20024;-63
2021/07/30 05:39:26;;;;;;;25.75;15.05;;;;;;;;;;1493352;39;20059;-64
2021/07/30 05:40:27;;;;;;;23.70;14.65;;;;;;;;;;1493140;39;20027;-64
2021/07/30 05:41:29;;;;;;;23.30;14.40;;;;;;;;;;1493249;39;20106;-64
2021/07/30 05:42:30;;;;;;;25.77;14.27;;;;;;;;;;1493166;39;20399;-64
2021/07/30 05:43:33;;;;;;;23.88;14.32;;;;;;;;;;1493211;39;20028;-64
2021/07/30 05:44:35;;;;;;;29.33;14.00;;;;;;;;;;1493232;39;20035;-63
2021/07/30 05:45:39;;;;;;;25.50;14.45;;;;;;;;;;1493212;39;20027;-64
2021/07/30 05:46:39;;;;;;;22.20;14.02;;;;;;;;;;1493222;39;20028;-64
2021/07/30 05:47:41;;;;;;;24.45;13.73;;;;;;;;;;1493232;39;20387;-63
2021/07/30 05:48:42;;;;;;;26.85;14.60;;;;;;;;;;1493056;39;20024;-63
2021/07/30 05:49:44;;;;;;;25.38;14.57;;;;;;;;;;1493310;39;20059;-63
2021/07/30 05:50:47;;;;;;;27.52;14.90;;;;;;;;;;1493057;39;20023;-64
2021/07/30 05:51:49;;;;;;;24.60;14.27;;;;;;;;;;1493429;39;20116;-63
2021/07/30 05:52:50;;;;;;;24.40;14.05;;;;;;;;;;1493382;39;20024;-64
2021/07/30 05:53:52;;;;;;;25.20;14.18;;;;;;;;;;1493288;39;20383;-64
2021/07/30 05:54:53;;;;;;;26.23;14.68;;;;;;;;;;1493214;39;20035;-64
2021/07/30 05:55:55;;;;;;;26.67;14.85;;;;;;;;;;1493249;39;20042;-63
2021/07/30 05:56:56;;;;;;;23.38;13.98;;;;;;;;;;1493155;39;20077;-63
2021/07/30 05:57:58;;;;;;;23.65;13.73;;;;;;;;;;1493271;39;20024;-64
2021/07/30 05:58:59;;;;;;;25.77;14.27;;;;;;;;;;1493213;39;20118;-63
2021/07/30 06:00:01;;;;;;;25.65;14.75;;;;;;;;;;1493160;39;20040;-63